sensor_id;sensor_type;location;lat;lon;timestamp;P1;durP1;ratioP1;P2;durP2;ratioP2
62798;SDS011;48842;51.046;13.796;2022-08-05T00:00:59;3.20;;;3.00;;
62798;SDS011;48842;51.046;13.796;2022-08-05T00:03:24;3.17;;;2.87;;
62798;SDS011;48842;51.046;13.796;2022-08-05T00:05:49;4.20;;;2.83;;
62798;SDS011;48842;51.046;13.796;2022-08-05T00:08:14;3.90;;;3.43;;
62798;SDS011;48842;51.046;13.796;2022-08-05T00:10:40;5.57;;;3.47;;
62798;SDS011;48842;51.046;13.796;2022-08-05T00:13:05;5.50;;;3.53;;
62798;SDS011;48842;51.046;13.796;2022-08-05T00:15:30;4.30;;;3.47;;
62798;SDS011;48842;51.046;13.796;2022-08-05T00:17:56;3.73;;;3.30;;
62798;SDS011;48842;51.046;13.796;2022-08-05T00:20:21;6.77;;;2.83;;
62798;SDS011;48842;51.046;13.796;2022-08-05T00:22:46;5.27;;;3.40;;
62798;SDS011;48842;51.046;13.796;2022-08-05T00:25:12;9.73;;;3.00;;
62798;SDS011;48842;51.046;13.796;2022-08-05T00:27:37;3.80;;;3.50;;
62798;SDS011;48842;51.046;13.796;2022-08-05T00:30:03;3.27;;;2.87;;
62798;SDS011;48842;51.046;13.796;2022-08-05T00:32:29;9.43;;;3.43;;
62798;SDS011;48842;51.046;13.796;2022-08-05T00:34:54;3.40;;;3.20;;
62798;SDS011;48842;51.046;13.796;2022-08-05T00:37:19;3.33;;;3.20;;
62798;SDS011;48842;51.046;13.796;2022-08-05T00:39:45;3.37;;;3.20;;
62798;SDS011;48842;51.046;13.796;2022-08-05T00:42:10;4.13;;;3.30;;
62798;SDS011;48842;51.046;13.796;2022-08-05T00:44:35;4.63;;;2.83;;
62798;SDS011;48842;51.046;13.796;2022-08-05T00:47:00;5.50;;;3.00;;
62798;SDS011;48842;51.046;13.796;2022-08-05T00:49:25;5.00;;;3.57;;
62798;SDS011;48842;51.046;13.796;2022-08-05T00:51:51;4.70;;;3.13;;
62798;SDS011;48842;51.046;13.796;2022-08-05T00:54:16;4.57;;;3.30;;
62798;SDS011;48842;51.046;13.796;2022-08-05T00:56:42;3.60;;;3.30;;
62798;SDS011;48842;51.046;13.796;2022-08-05T00:59:07;7.30;;;2.80;;
62798;SDS011;48842;51.046;13.796;2022-08-05T01:01:33;6.53;;;2.63;;
62798;SDS011;48842;51.046;13.796;2022-08-05T01:03:58;3.30;;;3.10;;
62798;SDS011;48842;51.046;13.796;2022-08-05T01:06:23;3.50;;;3.17;;
62798;SDS011;48842;51.046;13.796;2022-08-05T01:08:48;2.90;;;2.70;;
62798;SDS011;48842;51.046;13.796;2022-08-05T01:11:15;3.20;;;2.90;;
62798;SDS011;48842;51.046;13.796;2022-08-05T01:16:39;4.97;;;3.13;;
62798;SDS011;48842;51.046;13.796;2022-08-05T01:21:50;8.20;;;3.00;;
62798;SDS011;48842;51.046;13.796;2022-08-05T01:24:46;3.60;;;3.27;;
62798;SDS011;48842;51.046;13.796;2022-08-05T01:30:27;3.80;;;3.43;;
62798;SDS011;48842;51.046;13.796;2022-08-05T01:32:56;3.77;;;3.30;;
62798;SDS011;48842;51.046;13.796;2022-08-05T01:35:24;21.77;;;3.43;;
62798;SDS011;48842;51.046;13.796;2022-08-05T01:37:55;9.43;;;2.93;;
62798;SDS011;48842;51.046;13.796;2022-08-05T01:40:25;3.80;;;3.50;;
62798;SDS011;48842;51.046;13.796;2022-08-05T01:42:53;5.40;;;3.97;;
62798;SDS011;48842;51.046;13.796;2022-08-05T01:45:21;5.40;;;3.57;;
62798;SDS011;48842;51.046;13.796;2022-08-05T01:47:48;7.53;;;3.50;;
62798;SDS011;48842;51.046;13.796;2022-08-05T01:50:28;3.50;;;3.20;;
62798;SDS011;48842;51.046;13.796;2022-08-05T01:53:01;4.17;;;3.70;;
62798;SDS011;48842;51.046;13.796;2022-08-05T01:55:30;3.53;;;3.23;;
62798;SDS011;48842;51.046;13.796;2022-08-05T01:57:57;3.40;;;3.10;;
62798;SDS011;48842;51.046;13.796;2022-08-05T02:00:25;3.77;;;3.47;;
62798;SDS011;48842;51.046;13.796;2022-08-05T02:02:55;3.70;;;3.40;;
62798;SDS011;48842;51.046;13.796;2022-08-05T02:05:24;7.93;;;3.47;;
62798;SDS011;48842;51.046;13.796;2022-08-05T02:07:53;9.50;;;4.27;;
62798;SDS011;48842;51.046;13.796;2022-08-05T02:10:20;5.20;;;3.20;;
62798;SDS011;48842;51.046;13.796;2022-08-05T02:12:48;4.70;;;3.20;;
62798;SDS011;48842;51.046;13.796;2022-08-05T02:17:50;9.13;;;3.43;;
62798;SDS011;48842;51.046;13.796;2022-08-05T02:20:19;3.70;;;3.40;;
62798;SDS011;48842;51.046;13.796;2022-08-05T02:22:47;4.77;;;3.80;;
62798;SDS011;48842;51.046;13.796;2022-08-05T02:25:27;3.87;;;3.60;;
62798;SDS011;48842;51.046;13.796;2022-08-05T02:27:57;4.30;;;3.40;;
62798;SDS011;48842;51.046;13.796;2022-08-05T02:30:24;4.23;;;3.63;;
62798;SDS011;48842;51.046;13.796;2022-08-05T02:32:53;9.30;;;3.77;;
62798;SDS011;48842;51.046;13.796;2022-08-05T02:35:22;4.00;;;3.43;;
62798;SDS011;48842;51.046;13.796;2022-08-05T02:37:49;4.33;;;3.77;;
62798;SDS011;48842;51.046;13.796;2022-08-05T02:40:17;4.33;;;3.50;;
62798;SDS011;48842;51.046;13.796;2022-08-05T02:42:44;4.13;;;3.80;;
62798;SDS011;48842;51.046;13.796;2022-08-05T02:45:11;3.60;;;3.40;;
62798;SDS011;48842;51.046;13.796;2022-08-05T02:47:38;4.07;;;3.60;;
62798;SDS011;48842;51.046;13.796;2022-08-05T02:50:04;3.50;;;3.30;;
62798;SDS011;48842;51.046;13.796;2022-08-05T02:52:31;4.23;;;3.93;;
62798;SDS011;48842;51.046;13.796;2022-08-05T02:54:57;5.00;;;3.20;;
62798;SDS011;48842;51.046;13.796;2022-08-05T02:57:24;3.93;;;3.50;;
62798;SDS011;48842;51.046;13.796;2022-08-05T02:59:51;4.43;;;3.97;;
62798;SDS011;48842;51.046;13.796;2022-08-05T03:02:18;5.63;;;3.90;;
62798;SDS011;48842;51.046;13.796;2022-08-05T03:04:46;3.83;;;3.60;;
62798;SDS011;48842;51.046;13.796;2022-08-05T03:07:14;6.87;;;3.37;;
62798;SDS011;48842;51.046;13.796;2022-08-05T03:09:41;3.80;;;3.40;;
62798;SDS011;48842;51.046;13.796;2022-08-05T03:12:06;3.87;;;3.57;;
62798;SDS011;48842;51.046;13.796;2022-08-05T03:14:32;10.33;;;4.30;;
62798;SDS011;48842;51.046;13.796;2022-08-05T03:16:57;9.17;;;4.10;;
62798;SDS011;48842;51.046;13.796;2022-08-05T03:19:22;5.77;;;4.20;;
62798;SDS011;48842;51.046;13.796;2022-08-05T03:21:48;4.50;;;4.13;;
62798;SDS011;48842;51.046;13.796;2022-08-05T03:24:13;6.40;;;3.50;;
62798;SDS011;48842;51.046;13.796;2022-08-05T03:26:39;5.20;;;4.23;;
62798;SDS011;48842;51.046;13.796;2022-08-05T03:29:04;5.10;;;3.70;;
62798;SDS011;48842;51.046;13.796;2022-08-05T03:31:29;4.57;;;4.17;;
62798;SDS011;48842;51.046;13.796;2022-08-05T03:33:55;5.53;;;3.87;;
62798;SDS011;48842;51.046;13.796;2022-08-05T03:36:21;5.50;;;3.90;;
62798;SDS011;48842;51.046;13.796;2022-08-05T03:38:47;6.80;;;4.00;;
62798;SDS011;48842;51.046;13.796;2022-08-05T03:41:14;4.03;;;3.73;;
62798;SDS011;48842;51.046;13.796;2022-08-05T03:43:40;5.70;;;4.60;;
62798;SDS011;48842;51.046;13.796;2022-08-05T03:46:05;8.00;;;3.67;;
62798;SDS011;48842;51.046;13.796;2022-08-05T03:48:31;10.53;;;4.30;;
62798;SDS011;48842;51.046;13.796;2022-08-05T03:51:05;7.53;;;3.83;;
62798;SDS011;48842;51.046;13.796;2022-08-05T03:53:49;4.90;;;4.30;;
62798;SDS011;48842;51.046;13.796;2022-08-05T03:56:38;4.60;;;4.30;;
62798;SDS011;48842;51.046;13.796;2022-08-05T03:59:09;9.27;;;4.53;;
62798;SDS011;48842;51.046;13.796;2022-08-05T04:01:41;5.07;;;4.53;;
62798;SDS011;48842;51.046;13.796;2022-08-05T04:04:10;7.30;;;4.30;;
62798;SDS011;48842;51.046;13.796;2022-08-05T04:06:37;8.27;;;3.97;;
62798;SDS011;48842;51.046;13.796;2022-08-05T04:09:03;6.53;;;4.53;;
62798;SDS011;48842;51.046;13.796;2022-08-05T04:11:32;5.77;;;4.30;;
62798;SDS011;48842;51.046;13.796;2022-08-05T04:13:59;8.13;;;4.57;;
62798;SDS011;48842;51.046;13.796;2022-08-05T04:16:24;7.07;;;4.07;;
62798;SDS011;48842;51.046;13.796;2022-08-05T04:18:50;6.33;;;4.67;;
62798;SDS011;48842;51.046;13.796;2022-08-05T04:21:15;4.20;;;3.90;;
62798;SDS011;48842;51.046;13.796;2022-08-05T04:23:40;13.90;;;5.03;;
62798;SDS011;48842;51.046;13.796;2022-08-05T04:26:07;6.90;;;4.77;;
62798;SDS011;48842;51.046;13.796;2022-08-05T04:28:32;5.10;;;4.70;;
62798;SDS011;48842;51.046;13.796;2022-08-05T04:30:58;9.60;;;4.60;;
62798;SDS011;48842;51.046;13.796;2022-08-05T04:33:24;6.73;;;4.30;;
62798;SDS011;48842;51.046;13.796;2022-08-05T04:35:49;5.63;;;5.03;;
62798;SDS011;48842;51.046;13.796;2022-08-05T04:38:14;6.87;;;4.10;;
62798;SDS011;48842;51.046;13.796;2022-08-05T04:40:40;5.43;;;4.77;;
62798;SDS011;48842;51.046;13.796;2022-08-05T04:43:05;8.07;;;4.83;;
62798;SDS011;48842;51.046;13.796;2022-08-05T04:45:31;14.13;;;4.70;;
62798;SDS011;48842;51.046;13.796;2022-08-05T04:48:03;9.70;;;5.00;;
62798;SDS011;48842;51.046;13.796;2022-08-05T04:50:43;8.63;;;5.33;;
62798;SDS011;48842;51.046;13.796;2022-08-05T04:53:10;8.17;;;4.37;;
62798;SDS011;48842;51.046;13.796;2022-08-05T04:55:37;11.63;;;4.70;;
62798;SDS011;48842;51.046;13.796;2022-08-05T04:58:09;5.00;;;4.60;;
62798;SDS011;48842;51.046;13.796;2022-08-05T05:00:36;8.87;;;4.70;;
62798;SDS011;48842;51.046;13.796;2022-08-05T05:03:03;8.33;;;4.63;;
62798;SDS011;48842;51.046;13.796;2022-08-05T05:05:29;16.63;;;5.70;;
62798;SDS011;48842;51.046;13.796;2022-08-05T05:07:56;6.10;;;4.83;;
62798;SDS011;48842;51.046;13.796;2022-08-05T05:10:25;6.97;;;5.40;;
62798;SDS011;48842;51.046;13.796;2022-08-05T05:12:50;6.57;;;4.93;;
62798;SDS011;48842;51.046;13.796;2022-08-05T05:15:15;5.90;;;5.30;;
62798;SDS011;48842;51.046;13.796;2022-08-05T05:17:42;5.20;;;4.80;;
62798;SDS011;48842;51.046;13.796;2022-08-05T05:20:08;9.00;;;4.63;;
62798;SDS011;48842;51.046;13.796;2022-08-05T05:22:35;11.50;;;5.27;;
62798;SDS011;48842;51.046;13.796;2022-08-05T05:25:00;6.93;;;4.97;;
62798;SDS011;48842;51.046;13.796;2022-08-05T05:27:26;5.43;;;4.60;;
62798;SDS011;48842;51.046;13.796;2022-08-05T05:29:53;5.67;;;4.97;;
62798;SDS011;48842;51.046;13.796;2022-08-05T05:32:18;5.90;;;4.80;;
62798;SDS011;48842;51.046;13.796;2022-08-05T05:34:43;9.27;;;4.97;;
62798;SDS011;48842;51.046;13.796;2022-08-05T05:37:08;19.43;;;4.83;;
62798;SDS011;48842;51.046;13.796;2022-08-05T05:39:36;12.30;;;5.13;;
62798;SDS011;48842;51.046;13.796;2022-08-05T05:42:01;10.30;;;5.20;;
62798;SDS011;48842;51.046;13.796;2022-08-05T05:44:27;13.37;;;4.80;;
62798;SDS011;48842;51.046;13.796;2022-08-05T05:46:52;8.93;;;5.47;;
62798;SDS011;48842;51.046;13.796;2022-08-05T05:49:17;6.30;;;5.27;;
62798;SDS011;48842;51.046;13.796;2022-08-05T05:51:42;6.93;;;5.93;;
62798;SDS011;48842;51.046;13.796;2022-08-05T05:54:07;18.47;;;5.77;;
62798;SDS011;48842;51.046;13.796;2022-08-05T05:56:33;5.50;;;4.50;;
62798;SDS011;48842;51.046;13.796;2022-08-05T05:58:58;20.83;;;5.17;;
62798;SDS011;48842;51.046;13.796;2022-08-05T06:01:23;5.90;;;5.30;;
62798;SDS011;48842;51.046;13.796;2022-08-05T06:03:48;16.43;;;5.50;;
62798;SDS011;48842;51.046;13.796;2022-08-05T06:06:14;8.57;;;5.07;;
62798;SDS011;48842;51.046;13.796;2022-08-05T06:08:39;13.43;;;5.20;;
62798;SDS011;48842;51.046;13.796;2022-08-05T06:11:04;20.00;;;5.30;;
62798;SDS011;48842;51.046;13.796;2022-08-05T06:13:30;11.93;;;5.30;;
62798;SDS011;48842;51.046;13.796;2022-08-05T06:15:55;10.13;;;4.77;;
62798;SDS011;48842;51.046;13.796;2022-08-05T06:18:20;14.30;;;4.90;;
62798;SDS011;48842;51.046;13.796;2022-08-05T06:20:46;12.10;;;5.33;;
62798;SDS011;48842;51.046;13.796;2022-08-05T06:23:11;9.33;;;4.93;;
62798;SDS011;48842;51.046;13.796;2022-08-05T06:25:36;15.07;;;5.40;;
62798;SDS011;48842;51.046;13.796;2022-08-05T06:28:01;11.83;;;5.00;;
62798;SDS011;48842;51.046;13.796;2022-08-05T06:30:27;8.10;;;4.90;;
62798;SDS011;48842;51.046;13.796;2022-08-05T06:32:52;7.20;;;4.80;;
62798;SDS011;48842;51.046;13.796;2022-08-05T06:35:18;7.30;;;5.13;;
62798;SDS011;48842;51.046;13.796;2022-08-05T06:37:44;5.70;;;4.60;;
62798;SDS011;48842;51.046;13.796;2022-08-05T06:40:10;5.20;;;4.70;;
62798;SDS011;48842;51.046;13.796;2022-08-05T06:42:36;11.67;;;5.27;;
62798;SDS011;48842;51.046;13.796;2022-08-05T06:45:02;19.87;;;5.40;;
62798;SDS011;48842;51.046;13.796;2022-08-05T06:47:28;10.93;;;4.60;;
62798;SDS011;48842;51.046;13.796;2022-08-05T06:49:53;18.03;;;4.87;;
62798;SDS011;48842;51.046;13.796;2022-08-05T06:52:18;11.10;;;5.40;;
62798;SDS011;48842;51.046;13.796;2022-08-05T06:54:44;15.50;;;5.37;;
62798;SDS011;48842;51.046;13.796;2022-08-05T06:57:09;8.03;;;4.60;;
62798;SDS011;48842;51.046;13.796;2022-08-05T06:59:38;11.03;;;3.80;;
62798;SDS011;48842;51.046;13.796;2022-08-05T07:02:03;6.60;;;3.93;;
62798;SDS011;48842;51.046;13.796;2022-08-05T07:04:28;8.63;;;3.33;;
62798;SDS011;48842;51.046;13.796;2022-08-05T07:06:54;15.67;;;3.60;;
62798;SDS011;48842;51.046;13.796;2022-08-05T07:09:19;16.07;;;3.40;;
62798;SDS011;48842;51.046;13.796;2022-08-05T07:11:44;6.60;;;3.93;;
62798;SDS011;48842;51.046;13.796;2022-08-05T07:14:09;3.60;;;3.30;;
62798;SDS011;48842;51.046;13.796;2022-08-05T07:16:53;11.20;;;3.90;;
62798;SDS011;48842;51.046;13.796;2022-08-05T07:19:23;10.97;;;4.20;;
62798;SDS011;48842;51.046;13.796;2022-08-05T07:21:49;10.67;;;3.90;;
62798;SDS011;48842;51.046;13.796;2022-08-05T07:24:15;11.30;;;4.30;;
62798;SDS011;48842;51.046;13.796;2022-08-05T07:26:41;8.83;;;4.07;;
62798;SDS011;48842;51.046;13.796;2022-08-05T07:29:07;12.27;;;5.27;;
62798;SDS011;48842;51.046;13.796;2022-08-05T07:31:33;9.90;;;4.70;;
62798;SDS011;48842;51.046;13.796;2022-08-05T07:33:58;9.93;;;4.17;;
62798;SDS011;48842;51.046;13.796;2022-08-05T07:36:24;20.07;;;4.53;;
62798;SDS011;48842;51.046;13.796;2022-08-05T07:38:49;13.73;;;4.30;;
62798;SDS011;48842;51.046;13.796;2022-08-05T07:41:16;11.03;;;4.90;;
62798;SDS011;48842;51.046;13.796;2022-08-05T07:43:43;11.07;;;4.90;;
62798;SDS011;48842;51.046;13.796;2022-08-05T07:46:08;14.37;;;5.70;;
62798;SDS011;48842;51.046;13.796;2022-08-05T07:48:33;17.20;;;5.30;;
62798;SDS011;48842;51.046;13.796;2022-08-05T07:50:59;7.97;;;4.67;;
62798;SDS011;48842;51.046;13.796;2022-08-05T07:53:24;14.73;;;4.77;;
62798;SDS011;48842;51.046;13.796;2022-08-05T07:55:50;5.70;;;4.60;;
62798;SDS011;48842;51.046;13.796;2022-08-05T07:58:15;14.73;;;5.90;;
62798;SDS011;48842;51.046;13.796;2022-08-05T08:00:40;8.30;;;5.37;;
62798;SDS011;48842;51.046;13.796;2022-08-05T08:03:10;9.00;;;5.53;;
62798;SDS011;48842;51.046;13.796;2022-08-05T08:05:36;10.00;;;5.50;;
62798;SDS011;48842;51.046;13.796;2022-08-05T08:08:02;10.97;;;5.53;;
62798;SDS011;48842;51.046;13.796;2022-08-05T08:10:28;12.53;;;5.87;;
62798;SDS011;48842;51.046;13.796;2022-08-05T08:12:53;8.70;;;5.50;;
62798;SDS011;48842;51.046;13.796;2022-08-05T08:15:18;8.93;;;5.17;;
62798;SDS011;48842;51.046;13.796;2022-08-05T08:17:44;7.03;;;6.33;;
62798;SDS011;48842;51.046;13.796;2022-08-05T08:20:09;16.23;;;5.30;;
62798;SDS011;48842;51.046;13.796;2022-08-05T08:22:35;9.43;;;5.47;;
62798;SDS011;48842;51.046;13.796;2022-08-05T08:25:00;11.20;;;6.00;;
62798;SDS011;48842;51.046;13.796;2022-08-05T08:27:26;10.53;;;5.53;;
62798;SDS011;48842;51.046;13.796;2022-08-05T08:29:51;9.80;;;4.63;;
62798;SDS011;48842;51.046;13.796;2022-08-05T08:32:16;16.53;;;5.37;;
62798;SDS011;48842;51.046;13.796;2022-08-05T08:34:42;16.43;;;4.83;;
62798;SDS011;48842;51.046;13.796;2022-08-05T08:37:07;5.47;;;4.90;;
62798;SDS011;48842;51.046;13.796;2022-08-05T08:39:32;7.83;;;5.00;;
62798;SDS011;48842;51.046;13.796;2022-08-05T08:41:58;15.73;;;5.37;;
62798;SDS011;48842;51.046;13.796;2022-08-05T08:44:26;10.77;;;5.27;;
62798;SDS011;48842;51.046;13.796;2022-08-05T08:46:53;11.10;;;4.93;;
62798;SDS011;48842;51.046;13.796;2022-08-05T08:49:19;9.30;;;5.10;;
62798;SDS011;48842;51.046;13.796;2022-08-05T08:51:47;11.23;;;4.73;;
62798;SDS011;48842;51.046;13.796;2022-08-05T08:54:17;11.73;;;4.50;;
62798;SDS011;48842;51.046;13.796;2022-08-05T08:56:42;6.53;;;4.47;;
62798;SDS011;48842;51.046;13.796;2022-08-05T08:59:08;7.97;;;4.80;;
62798;SDS011;48842;51.046;13.796;2022-08-05T09:01:35;11.70;;;4.77;;
62798;SDS011;48842;51.046;13.796;2022-08-05T09:04:00;9.77;;;4.37;;
62798;SDS011;48842;51.046;13.796;2022-08-05T09:06:27;8.10;;;4.23;;
62798;SDS011;48842;51.046;13.796;2022-08-05T09:08:53;14.80;;;5.20;;
62798;SDS011;48842;51.046;13.796;2022-08-05T09:11:19;5.27;;;4.87;;
62798;SDS011;48842;51.046;13.796;2022-08-05T09:13:44;11.40;;;4.53;;
62798;SDS011;48842;51.046;13.796;2022-08-05T09:16:11;16.77;;;5.27;;
62798;SDS011;48842;51.046;13.796;2022-08-05T09:18:37;10.53;;;5.63;;
62798;SDS011;48842;51.046;13.796;2022-08-05T09:21:02;8.70;;;4.97;;
62798;SDS011;48842;51.046;13.796;2022-08-05T09:23:28;11.17;;;4.60;;
62798;SDS011;48842;51.046;13.796;2022-08-05T09:26:11;9.97;;;4.83;;
62798;SDS011;48842;51.046;13.796;2022-08-05T09:28:39;9.50;;;3.93;;
62798;SDS011;48842;51.046;13.796;2022-08-05T09:31:06;8.27;;;4.10;;
62798;SDS011;48842;51.046;13.796;2022-08-05T09:33:45;10.83;;;4.80;;
62798;SDS011;48842;51.046;13.796;2022-08-05T09:36:15;9.17;;;5.03;;
62798;SDS011;48842;51.046;13.796;2022-08-05T09:39:04;7.77;;;4.60;;
62798;SDS011;48842;51.046;13.796;2022-08-05T09:41:31;15.50;;;5.47;;
62798;SDS011;48842;51.046;13.796;2022-08-05T09:43:56;9.90;;;4.80;;
62798;SDS011;48842;51.046;13.796;2022-08-05T09:46:23;6.90;;;5.80;;
62798;SDS011;48842;51.046;13.796;2022-08-05T09:48:51;11.43;;;4.70;;
62798;SDS011;48842;51.046;13.796;2022-08-05T09:51:26;6.57;;;4.73;;
62798;SDS011;48842;51.046;13.796;2022-08-05T09:54:04;10.53;;;4.53;;
62798;SDS011;48842;51.046;13.796;2022-08-05T09:56:33;9.93;;;4.13;;
62798;SDS011;48842;51.046;13.796;2022-08-05T09:59:05;9.10;;;5.10;;
62798;SDS011;48842;51.046;13.796;2022-08-05T10:01:32;16.73;;;4.53;;
62798;SDS011;48842;51.046;13.796;2022-08-05T10:04:10;8.90;;;4.50;;
62798;SDS011;48842;51.046;13.796;2022-08-05T10:06:41;17.60;;;4.93;;
62798;SDS011;48842;51.046;13.796;2022-08-05T10:09:17;5.37;;;4.87;;
62798;SDS011;48842;51.046;13.796;2022-08-05T10:11:45;11.70;;;4.67;;
62798;SDS011;48842;51.046;13.796;2022-08-05T10:16:53;10.60;;;5.03;;
62798;SDS011;48842;51.046;13.796;2022-08-05T10:19:21;6.97;;;4.37;;
62798;SDS011;48842;51.046;13.796;2022-08-05T10:21:47;10.43;;;4.90;;
62798;SDS011;48842;51.046;13.796;2022-08-05T10:24:14;15.73;;;5.40;;
62798;SDS011;48842;51.046;13.796;2022-08-05T10:26:42;13.47;;;4.60;;
62798;SDS011;48842;51.046;13.796;2022-08-05T10:29:09;10.73;;;5.00;;
62798;SDS011;48842;51.046;13.796;2022-08-05T10:31:35;18.53;;;4.80;;
62798;SDS011;48842;51.046;13.796;2022-08-05T10:34:01;13.83;;;5.20;;
62798;SDS011;48842;51.046;13.796;2022-08-05T10:36:26;16.23;;;4.87;;
62798;SDS011;48842;51.046;13.796;2022-08-05T10:38:56;6.43;;;4.23;;
62798;SDS011;48842;51.046;13.796;2022-08-05T10:41:36;13.63;;;4.80;;
62798;SDS011;48842;51.046;13.796;2022-08-05T10:44:10;9.43;;;5.23;;
62798;SDS011;48842;51.046;13.796;2022-08-05T10:46:47;7.67;;;5.97;;
62798;SDS011;48842;51.046;13.796;2022-08-05T10:49:17;9.10;;;4.87;;
62798;SDS011;48842;51.046;13.796;2022-08-05T10:51:46;16.50;;;5.20;;
62798;SDS011;48842;51.046;13.796;2022-08-05T10:54:14;6.20;;;5.20;;
62798;SDS011;48842;51.046;13.796;2022-08-05T10:56:47;8.23;;;4.93;;
62798;SDS011;48842;51.046;13.796;2022-08-05T10:59:17;5.57;;;4.97;;
62798;SDS011;48842;51.046;13.796;2022-08-05T11:01:48;23.90;;;6.33;;
62798;SDS011;48842;51.046;13.796;2022-08-05T11:04:20;5.03;;;4.33;;
62798;SDS011;48842;51.046;13.796;2022-08-05T11:09:25;7.20;;;5.07;;
62798;SDS011;48842;51.046;13.796;2022-08-05T11:11:52;7.20;;;4.93;;
62798;SDS011;48842;51.046;13.796;2022-08-05T11:14:25;15.03;;;5.20;;
62798;SDS011;48842;51.046;13.796;2022-08-05T11:19:43;13.10;;;5.87;;
62798;SDS011;48842;51.046;13.796;2022-08-05T11:25:28;8.03;;;5.53;;
62798;SDS011;48842;51.046;13.796;2022-08-05T11:28:35;15.60;;;4.63;;
62798;SDS011;48842;51.046;13.796;2022-08-05T11:35:57;6.33;;;5.50;;
62798;SDS011;48842;51.046;13.796;2022-08-05T11:38:49;9.67;;;5.10;;
62798;SDS011;48842;51.046;13.796;2022-08-05T11:41:27;6.60;;;5.00;;
62798;SDS011;48842;51.046;13.796;2022-08-05T11:43:59;10.33;;;4.73;;
62798;SDS011;48842;51.046;13.796;2022-08-05T11:49:07;8.00;;;4.83;;
62798;SDS011;48842;51.046;13.796;2022-08-05T11:51:35;7.83;;;4.90;;
62798;SDS011;48842;51.046;13.796;2022-08-05T11:54:01;10.20;;;5.00;;
62798;SDS011;48842;51.046;13.796;2022-08-05T11:56:46;4.90;;;4.60;;
62798;SDS011;48842;51.046;13.796;2022-08-05T11:59:19;4.57;;;4.27;;
62798;SDS011;48842;51.046;13.796;2022-08-05T12:01:53;5.30;;;4.60;;
62798;SDS011;48842;51.046;13.796;2022-08-05T12:04:21;8.07;;;4.80;;
62798;SDS011;48842;51.046;13.796;2022-08-05T12:06:48;7.00;;;4.40;;
62798;SDS011;48842;51.046;13.796;2022-08-05T12:09:15;4.63;;;4.23;;
62798;SDS011;48842;51.046;13.796;2022-08-05T12:11:42;7.00;;;4.57;;
62798;SDS011;48842;51.046;13.796;2022-08-05T12:14:09;5.87;;;3.97;;
62798;SDS011;48842;51.046;13.796;2022-08-05T12:16:41;6.53;;;3.90;;
62798;SDS011;48842;51.046;13.796;2022-08-05T12:19:08;7.60;;;4.10;;
62798;SDS011;48842;51.046;13.796;2022-08-05T12:21:45;13.93;;;3.87;;
62798;SDS011;48842;51.046;13.796;2022-08-05T12:24:20;6.83;;;4.20;;
62798;SDS011;48842;51.046;13.796;2022-08-05T12:26:49;6.77;;;3.90;;
62798;SDS011;48842;51.046;13.796;2022-08-05T12:29:17;9.00;;;3.50;;
62798;SDS011;48842;51.046;13.796;2022-08-05T12:31:54;8.40;;;3.53;;
62798;SDS011;48842;51.046;13.796;2022-08-05T12:34:23;5.17;;;3.40;;
62798;SDS011;48842;51.046;13.796;2022-08-05T12:36:52;5.40;;;3.03;;
62798;SDS011;48842;51.046;13.796;2022-08-05T12:39:18;5.03;;;3.03;;
62798;SDS011;48842;51.046;13.796;2022-08-05T12:41:44;10.30;;;3.10;;
62798;SDS011;48842;51.046;13.796;2022-08-05T12:44:11;3.40;;;3.10;;
62798;SDS011;48842;51.046;13.796;2022-08-05T12:46:38;4.00;;;3.17;;
62798;SDS011;48842;51.046;13.796;2022-08-05T12:49:08;4.17;;;3.20;;
62798;SDS011;48842;51.046;13.796;2022-08-05T12:54:22;3.20;;;2.70;;
62798;SDS011;48842;51.046;13.796;2022-08-05T12:56:53;4.07;;;3.53;;
62798;SDS011;48842;51.046;13.796;2022-08-05T12:59:21;4.10;;;3.10;;
62798;SDS011;48842;51.046;13.796;2022-08-05T13:04:33;3.57;;;3.37;;
62798;SDS011;48842;51.046;13.796;2022-08-05T13:07:03;3.83;;;3.40;;
62798;SDS011;48842;51.046;13.796;2022-08-05T13:09:39;11.50;;;3.30;;
62798;SDS011;48842;51.046;13.796;2022-08-05T13:12:06;5.33;;;3.00;;
62798;SDS011;48842;51.046;13.796;2022-08-05T13:14:42;3.23;;;2.53;;
62798;SDS011;48842;51.046;13.796;2022-08-05T13:17:15;5.80;;;2.67;;
62798;SDS011;48842;51.046;13.796;2022-08-05T13:19:56;5.77;;;2.60;;
62798;SDS011;48842;51.046;13.796;2022-08-05T13:22:22;3.67;;;3.00;;
62798;SDS011;48842;51.046;13.796;2022-08-05T13:24:49;4.10;;;2.30;;
62798;SDS011;48842;51.046;13.796;2022-08-05T13:27:24;9.50;;;2.70;;
62798;SDS011;48842;51.046;13.796;2022-08-05T13:29:50;3.60;;;2.70;;
62798;SDS011;48842;51.046;13.796;2022-08-05T13:32:15;6.83;;;2.20;;
62798;SDS011;48842;51.046;13.796;2022-08-05T13:34:41;3.60;;;1.93;;
62798;SDS011;48842;51.046;13.796;2022-08-05T13:37:06;6.30;;;2.30;;
62798;SDS011;48842;51.046;13.796;2022-08-05T13:39:31;5.30;;;2.27;;
62798;SDS011;48842;51.046;13.796;2022-08-05T13:41:56;7.23;;;2.07;;
62798;SDS011;48842;51.046;13.796;2022-08-05T13:44:21;3.60;;;1.80;;
62798;SDS011;48842;51.046;13.796;2022-08-05T13:46:47;2.60;;;1.90;;
62798;SDS011;48842;51.046;13.796;2022-08-05T13:49:12;1.67;;;1.50;;
62798;SDS011;48842;51.046;13.796;2022-08-05T13:51:37;5.90;;;1.93;;
62798;SDS011;48842;51.046;13.796;2022-08-05T13:54:04;2.90;;;1.70;;
62798;SDS011;48842;51.046;13.796;2022-08-05T13:56:29;5.13;;;1.90;;
62798;SDS011;48842;51.046;13.796;2022-08-05T13:58:55;2.90;;;2.10;;
62798;SDS011;48842;51.046;13.796;2022-08-05T14:01:20;9.50;;;1.90;;
62798;SDS011;48842;51.046;13.796;2022-08-05T14:03:49;4.57;;;1.83;;
62798;SDS011;48842;51.046;13.796;2022-08-05T14:06:34;5.90;;;2.00;;
62798;SDS011;48842;51.046;13.796;2022-08-05T14:09:00;7.73;;;2.30;;
62798;SDS011;48842;51.046;13.796;2022-08-05T14:11:25;6.53;;;1.53;;
62798;SDS011;48842;51.046;13.796;2022-08-05T14:13:52;1.83;;;1.50;;
62798;SDS011;48842;51.046;13.796;2022-08-05T14:16:17;3.53;;;1.70;;
62798;SDS011;48842;51.046;13.796;2022-08-05T14:18:42;37.20;;;1.97;;
62798;SDS011;48842;51.046;13.796;2022-08-05T14:21:07;3.23;;;1.73;;
62798;SDS011;48842;51.046;13.796;2022-08-05T14:23:32;2.20;;;1.70;;
62798;SDS011;48842;51.046;13.796;2022-08-05T14:25:58;6.77;;;1.90;;
62798;SDS011;48842;51.046;13.796;2022-08-05T14:28:23;6.60;;;1.70;;
62798;SDS011;48842;51.046;13.796;2022-08-05T14:30:48;3.70;;;1.97;;
62798;SDS011;48842;51.046;13.796;2022-08-05T14:33:20;7.17;;;1.60;;
62798;SDS011;48842;51.046;13.796;2022-08-05T14:35:45;3.80;;;2.03;;
62798;SDS011;48842;51.046;13.796;2022-08-05T14:38:10;1.77;;;1.60;;
62798;SDS011;48842;51.046;13.796;2022-08-05T14:40:36;2.27;;;1.40;;
62798;SDS011;48842;51.046;13.796;2022-08-05T14:43:01;3.80;;;1.53;;
62798;SDS011;48842;51.046;13.796;2022-08-05T14:45:26;7.73;;;1.60;;
62798;SDS011;48842;51.046;13.796;2022-08-05T14:47:52;3.70;;;1.60;;
62798;SDS011;48842;51.046;13.796;2022-08-05T14:50:17;9.23;;;1.60;;
62798;SDS011;48842;51.046;13.796;2022-08-05T14:52:42;1.50;;;1.40;;
62798;SDS011;48842;51.046;13.796;2022-08-05T14:55:07;5.70;;;1.43;;
62798;SDS011;48842;51.046;13.796;2022-08-05T14:57:33;3.90;;;1.47;;
62798;SDS011;48842;51.046;13.796;2022-08-05T14:59:58;3.47;;;1.87;;
62798;SDS011;48842;51.046;13.796;2022-08-05T15:02:23;5.60;;;1.97;;
62798;SDS011;48842;51.046;13.796;2022-08-05T15:04:48;6.83;;;1.87;;
62798;SDS011;48842;51.046;13.796;2022-08-05T15:07:14;6.33;;;1.90;;
62798;SDS011;48842;51.046;13.796;2022-08-05T15:09:39;7.13;;;2.03;;